createdAt,value
2022-12-26T00:01:40.100Z,10.07
2022-12-26T00:04:49.740Z,8.27
2022-12-26T00:07:02.487Z,8.27
2022-12-26T00:09:32.072Z,10.38
2022-12-26T00:12:01.800Z,7.70
2022-12-26T00:14:31.500Z,9.20
2022-12-26T00:17:01.130Z,7.25
2022-12-26T00:19:33.303Z,7.03
2022-12-26T00:22:03.351Z,4.57
2022-12-26T00:24:32.941Z,6.55
2022-12-26T00:27:02.547Z,6.60
2022-12-26T00:29:32.138Z,7.03
2022-12-26T00:32:01.878Z,6.53
2022-12-26T00:34:34.286Z,6.70
2022-12-26T00:37:03.912Z,6.45
2022-12-26T00:39:33.717Z,5.63
2022-12-26T00:42:03.331Z,5.43
2022-12-26T00:44:32.915Z,6.00
2022-12-26T00:47:02.524Z,7.68
2022-12-26T00:50:13.728Z,6.30
2022-12-26T00:52:24.265Z,4.32
2022-12-26T00:54:53.878Z,5.40
2022-12-26T00:57:23.483Z,6.55
2022-12-26T00:59:53.047Z,5.57
2022-12-26T01:02:44.164Z,5.88
2022-12-26T01:05:16.409Z,4.22
2022-12-26T01:08:22.541Z,4.53
2022-12-26T01:10:35.621Z,6.03
2022-12-26T01:13:05.557Z,5.95
2022-12-26T01:15:35.555Z,6.15
2022-12-26T01:18:05.305Z,7.05
2022-12-26T01:20:37.468Z,4.72
2022-12-26T01:23:07.394Z,7.00
2022-12-26T01:25:37.383Z,4.38
2022-12-26T01:28:26.966Z,5.88
2022-12-26T01:30:56.583Z,7.97
2022-12-26T01:33:26.181Z,4.40
2022-12-26T01:35:58.345Z,5.30
2022-12-26T01:38:27.974Z,5.38
2022-12-26T01:41:09.855Z,5.72
2022-12-26T01:43:57.814Z,5.57
2022-12-26T01:46:32.320Z,5.82
2022-12-26T01:49:03.981Z,4.72
2022-12-26T01:51:39.834Z,3.72
2022-12-26T01:54:37.655Z,5.13
2022-12-26T01:57:01.258Z,5.15
2022-12-26T01:59:33.053Z,5.15
2022-12-26T02:02:03.072Z,7.13
2022-12-26T02:04:48.858Z,4.88
2022-12-26T02:07:22.683Z,6.35
2022-12-26T02:09:52.532Z,6.75
2022-12-26T02:12:33.961Z,8.48
2022-12-26T02:15:08.274Z,6.20
2022-12-26T02:17:37.852Z,5.07
2022-12-26T02:20:16.388Z,5.97
2022-12-26T02:23:16.310Z,6.72
2022-12-26T02:26:18.407Z,5.00
2022-12-26T02:29:04.319Z,6.38
2022-12-26T02:31:40.853Z,6.60
2022-12-26T02:34:14.431Z,8.35
2022-12-26T02:36:59.257Z,7.28
2022-12-26T02:39:44.723Z,8.40
2022-12-26T02:42:25.230Z,4.45
2022-12-26T02:45:09.470Z,9.73
2022-12-26T02:47:46.089Z,7.20
2022-12-26T02:50:31.193Z,6.47
2022-12-26T02:53:20.573Z,4.15
2022-12-26T02:56:05.198Z,3.80
2022-12-26T02:58:52.088Z,5.72
2022-12-26T03:01:39.658Z,6.78
2022-12-26T03:04:28.307Z,4.75
2022-12-26T03:07:12.538Z,3.38
2022-12-26T03:09:55.726Z,3.83
2022-12-26T03:12:53.910Z,3.50
2022-12-26T03:15:25.069Z,4.05
2022-12-26T03:17:55.938Z,5.97
2022-12-26T03:20:30.965Z,4.45
2022-12-26T03:23:02.819Z,5.22
2022-12-26T03:25:54.732Z,3.30
2022-12-26T03:28:25.212Z,4.28
2022-12-26T03:30:52.468Z,4.88
2022-12-26T03:33:39.912Z,5.05
2022-12-26T03:36:15.075Z,4.32
2022-12-26T03:38:57.761Z,7.03
2022-12-26T03:41:53.368Z,8.50
2022-12-26T03:44:41.980Z,5.00
2022-12-26T03:47:31.425Z,4.90
2022-12-26T03:50:22.113Z,9.68
2022-12-26T03:53:12.771Z,7.55
2022-12-26T03:56:00.683Z,7.03
2022-12-26T03:58:47.519Z,6.22
2022-12-26T04:01:33.055Z,8.23
2022-12-26T04:04:15.708Z,7.25
2022-12-26T04:07:01.203Z,7.00
2022-12-26T04:09:50.298Z,7.97
2022-12-26T04:12:36.522Z,4.95
2022-12-26T04:15:22.409Z,5.93
2022-12-26T04:18:08.865Z,5.68
2022-12-26T04:20:44.000Z,6.22
2022-12-26T04:23:30.238Z,6.78
2022-12-26T04:26:20.099Z,5.75
2022-12-26T04:29:02.197Z,6.63
2022-12-26T04:31:48.224Z,5.57
2022-12-26T04:34:35.611Z,7.88
2022-12-26T04:37:19.859Z,6.82
2022-12-26T04:40:05.002Z,5.72
2022-12-26T04:42:50.266Z,6.35
2022-12-26T04:45:20.093Z,10.45
2022-12-26T04:48:01.938Z,5.35
2022-12-26T04:50:31.411Z,5.82
2022-12-26T04:53:04.007Z,5.80
2022-12-26T04:55:35.872Z,8.55
2022-12-26T04:58:08.647Z,6.70
2022-12-26T05:00:38.146Z,8.10
2022-12-26T05:03:20.244Z,6.85
2022-12-26T05:06:05.494Z,9.00
2022-12-26T05:08:51.139Z,7.00
2022-12-26T05:11:20.687Z,6.32
2022-12-26T05:13:54.488Z,7.75
2022-12-26T05:16:36.754Z,8.38
2022-12-26T05:19:18.750Z,9.05
2022-12-26T05:22:00.819Z,7.78
2022-12-26T05:24:46.969Z,6.68
2022-12-26T05:27:31.050Z,10.65
2022-12-26T05:30:03.737Z,7.55
2022-12-26T05:32:46.431Z,7.35
2022-12-26T05:35:16.008Z,7.07
2022-12-26T05:37:45.513Z,8.77
2022-12-26T05:40:15.134Z,8.07
2022-12-26T05:42:44.601Z,5.57
2022-12-26T05:45:16.742Z,6.35
2022-12-26T05:47:51.682Z,6.03
2022-12-26T05:50:21.572Z,7.65
2022-12-26T05:52:51.065Z,6.55
2022-12-26T05:55:20.779Z,10.27
2022-12-26T05:57:50.265Z,5.72
2022-12-26T06:00:22.558Z,6.80
2022-12-26T06:02:52.176Z,5.93
2022-12-26T06:05:21.981Z,7.13
2022-12-26T06:07:51.465Z,9.65
2022-12-26T06:10:20.950Z,6.72
2022-12-26T06:12:50.457Z,7.30
2022-12-26T06:15:22.543Z,6.97
2022-12-26T06:17:52.038Z,8.55
2022-12-26T06:20:21.509Z,10.60
2022-12-26T06:22:51.007Z,9.18
2022-12-26T06:25:21.070Z,7.35
2022-12-26T06:27:50.560Z,5.65
2022-12-26T06:30:22.619Z,7.35
2022-12-26T06:32:52.121Z,6.05
2022-12-26T06:35:22.541Z,6.05
2022-12-26T06:37:52.039Z,5.45
2022-12-26T06:40:21.653Z,4.65
2022-12-26T06:42:51.176Z,3.95
2022-12-26T06:45:23.232Z,3.28
2022-12-26T06:47:52.703Z,6.32
2022-12-26T06:50:23.291Z,4.43
2022-12-26T06:52:52.851Z,2.80
2022-12-26T06:55:22.387Z,3.47
2022-12-26T06:57:54.663Z,3.22
2022-12-26T07:00:26.784Z,3.63
2022-12-26T07:02:56.334Z,3.03
2022-12-26T07:05:25.882Z,3.47
2022-12-26T07:07:55.489Z,3.28
2022-12-26T07:10:25.206Z,3.20
2022-12-26T07:12:54.653Z,3.83
2022-12-26T07:15:26.714Z,3.15
2022-12-26T07:17:56.175Z,3.60
2022-12-26T07:20:25.678Z,3.17
2022-12-26T07:22:55.130Z,3.65
2022-12-26T07:25:24.619Z,3.25
2022-12-26T07:27:56.187Z,7.78
2022-12-26T07:30:28.566Z,10.73
2022-12-26T07:32:58.133Z,4.05
2022-12-26T07:35:27.680Z,3.50
2022-12-26T07:37:57.308Z,4.10
2022-12-26T07:40:29.558Z,2.92
2022-12-26T07:42:59.297Z,2.78
2022-12-26T07:45:31.696Z,3.40
2022-12-26T07:48:01.484Z,2.67
2022-12-26T07:50:31.554Z,3.42
2022-12-26T07:53:02.613Z,4.93
2022-12-26T07:55:32.464Z,3.90
2022-12-26T07:58:02.337Z,2.78
2022-12-26T08:00:34.963Z,3.42
2022-12-26T08:03:07.830Z,2.70
2022-12-26T08:05:37.599Z,2.70
2022-12-26T08:08:07.517Z,2.20
2022-12-26T08:10:37.001Z,3.67
2022-12-26T08:13:06.463Z,1.90
2022-12-26T08:15:41.038Z,3.08
2022-12-26T08:18:10.747Z,3.85
2022-12-26T08:20:40.257Z,4.13
2022-12-26T08:23:09.861Z,2.83
2022-12-26T08:25:39.570Z,2.00
2022-12-26T08:28:09.151Z,2.08
2022-12-26T08:30:42.010Z,1.88
2022-12-26T08:33:12.730Z,1.65
2022-12-26T08:35:43.161Z,3.13
2022-12-26T08:38:12.730Z,2.17
2022-12-26T08:40:44.490Z,2.13
2022-12-26T08:43:38.725Z,2.78
2022-12-26T08:46:09.518Z,2.92
2022-12-26T08:48:40.819Z,1.90
2022-12-26T08:51:12.266Z,5.15
2022-12-26T08:53:41.844Z,5.80
2022-12-26T08:56:14.966Z,15.55
2022-12-26T08:58:44.750Z,5.00
2022-12-26T09:01:18.591Z,3.08
2022-12-26T09:06:18.288Z,2.75
2022-12-26T09:08:47.903Z,2.53
2022-12-26T09:11:19.072Z,2.78
2022-12-26T09:13:49.330Z,2.60
2022-12-26T09:16:22.782Z,3.42
2022-12-26T09:18:56.834Z,2.67
2022-12-26T09:23:59.723Z,2.70
2022-12-26T09:26:29.774Z,2.65
2022-12-26T09:29:00.798Z,5.15
2022-12-26T09:31:34.934Z,3.05
2022-12-26T09:34:06.363Z,6.25
2022-12-26T09:36:38.194Z,5.22
2022-12-26T09:39:09.001Z,2.92
2022-12-26T09:41:50.879Z,3.92
2022-12-26T09:44:23.757Z,6.10
2022-12-26T09:47:03.504Z,6.13
2022-12-26T09:49:35.482Z,2.25
2022-12-26T09:52:22.225Z,5.32
2022-12-26T09:54:53.571Z,4.00
2022-12-26T09:57:28.244Z,3.35
2022-12-26T10:00:02.057Z,4.35
2022-12-26T10:02:45.273Z,4.72
2022-12-26T10:05:16.236Z,10.05
2022-12-26T10:07:49.173Z,5.70
2022-12-26T10:10:23.690Z,5.35
2022-12-26T10:12:59.503Z,3.90
2022-12-26T10:15:44.234Z,5.38
2022-12-26T10:18:28.341Z,5.28
2022-12-26T10:21:09.118Z,4.45
2022-12-26T10:23:40.008Z,6.22
2022-12-26T10:26:14.345Z,5.93
2022-12-26T10:28:47.220Z,3.00
2022-12-26T10:31:22.501Z,10.98
2022-12-26T10:33:58.635Z,8.35
2022-12-26T10:36:36.693Z,4.55
2022-12-26T10:39:09.036Z,3.88
2022-12-26T10:41:41.906Z,3.60
2022-12-26T10:44:12.426Z,2.92
2022-12-26T10:47:05.533Z,2.70
2022-12-26T10:49:38.362Z,3.28
2022-12-26T10:52:08.123Z,4.70
2022-12-26T10:54:37.719Z,9.10
2022-12-26T10:57:08.425Z,25.20
2022-12-26T10:59:50.474Z,9.80
2022-12-26T11:02:27.316Z,4.70
2022-12-26T11:05:27.426Z,5.75
2022-12-26T11:07:59.157Z,2.10
2022-12-26T11:10:31.211Z,3.03
2022-12-26T11:13:03.899Z,3.13
2022-12-26T11:15:37.351Z,4.90
2022-12-26T11:18:12.787Z,4.57
2022-12-26T11:20:45.023Z,3.63
2022-12-26T11:23:30.436Z,4.70
2022-12-26T11:26:01.025Z,5.03
2022-12-26T11:28:33.894Z,4.13
2022-12-26T11:31:04.904Z,5.72
2022-12-26T11:33:36.534Z,3.20
2022-12-26T11:36:13.668Z,3.17
2022-12-26T11:38:49.691Z,4.13
2022-12-26T11:41:36.665Z,1.60
2022-12-26T11:44:20.868Z,4.35
2022-12-26T11:46:54.487Z,3.13
2022-12-26T11:49:30.165Z,3.90
2022-12-26T11:52:04.521Z,2.17
2022-12-26T11:54:37.149Z,4.15
2022-12-26T11:57:15.237Z,4.13
2022-12-26T11:59:44.903Z,7.18
2022-12-26T12:02:26.413Z,4.82
2022-12-26T12:04:58.738Z,4.90
2022-12-26T12:07:41.418Z,4.45
2022-12-26T12:10:36.422Z,2.60
2022-12-26T12:13:11.081Z,3.97
2022-12-26T12:15:46.552Z,3.60
2022-12-26T12:18:22.978Z,4.70
2022-12-26T12:21:03.208Z,5.45
2022-12-26T12:23:45.556Z,2.30
2022-12-26T12:26:19.068Z,4.40
2022-12-26T12:29:06.611Z,6.03
2022-12-26T12:31:46.674Z,5.47
2022-12-26T12:34:25.348Z,6.68
2022-12-26T12:37:07.121Z,6.90
2022-12-26T12:39:47.972Z,3.63
2022-12-26T12:42:27.511Z,5.22
2022-12-26T12:45:19.838Z,3.10
2022-12-26T12:47:54.267Z,5.15
2022-12-26T12:50:28.332Z,3.92
2022-12-26T12:53:11.287Z,4.00
2022-12-26T12:55:55.446Z,4.45
2022-12-26T12:58:32.049Z,4.70
2022-12-26T13:01:05.404Z,5.18
2022-12-26T13:03:38.677Z,2.53
2022-12-26T13:06:11.842Z,3.33
2022-12-26T13:08:43.663Z,4.28
2022-12-26T13:11:19.628Z,3.47
2022-12-26T13:13:53.945Z,2.95
2022-12-26T13:16:25.994Z,4.95
2022-12-26T13:18:59.741Z,6.30
2022-12-26T13:21:30.248Z,3.35
2022-12-26T13:24:17.338Z,5.75
2022-12-26T13:26:52.826Z,2.88
2022-12-26T13:29:31.832Z,3.17
2022-12-26T13:32:02.201Z,4.28
2022-12-26T13:34:31.826Z,3.25
2022-12-26T13:37:02.700Z,4.97
2022-12-26T13:39:38.721Z,4.82
2022-12-26T13:42:47.066Z,3.63
2022-12-26T13:45:51.391Z,3.85
2022-12-26T13:48:51.461Z,4.65
2022-12-26T13:51:46.095Z,7.22
2022-12-26T13:54:17.321Z,6.40
2022-12-26T13:57:28.193Z,3.80
2022-12-26T14:00:09.480Z,3.28
2022-12-26T14:03:18.737Z,3.35
2022-12-26T14:06:01.066Z,7.53
2022-12-26T14:08:37.925Z,9.07
2022-12-26T14:11:18.056Z,5.50
2022-12-26T14:13:58.345Z,6.25
2022-12-26T14:16:34.302Z,5.25
2022-12-26T14:19:18.272Z,5.18
2022-12-26T14:21:53.685Z,3.97
2022-12-26T14:24:29.957Z,8.45
2022-12-26T14:27:11.551Z,5.55
2022-12-26T14:29:51.867Z,6.25
2022-12-26T14:32:31.872Z,6.03
2022-12-26T14:35:07.644Z,8.82
2022-12-26T14:37:49.224Z,8.52
2022-12-26T14:40:29.063Z,6.05
2022-12-26T14:43:20.474Z,4.15
2022-12-26T14:45:52.176Z,7.03
2022-12-26T14:48:54.241Z,6.00
2022-12-26T14:51:33.742Z,6.00
2022-12-26T14:54:34.095Z,3.83
2022-12-26T14:57:04.014Z,6.25
2022-12-26T14:59:34.786Z,7.80
2022-12-26T15:02:12.032Z,4.68
2022-12-26T15:05:09.361Z,7.07
2022-12-26T15:07:54.219Z,6.57
2022-12-26T15:10:47.512Z,4.50
2022-12-26T15:13:58.220Z,3.65
2022-12-26T15:16:42.834Z,4.50
2022-12-26T15:19:40.730Z,9.43
2022-12-26T15:22:59.645Z,9.00
2022-12-26T15:25:51.305Z,7.68
2022-12-26T15:28:49.075Z,5.53
2022-12-26T15:31:44.721Z,5.13
2022-12-26T15:34:49.747Z,4.22
2022-12-26T15:37:33.525Z,7.05
2022-12-26T15:40:10.440Z,4.85
2022-12-26T15:43:06.917Z,4.25
2022-12-26T15:45:46.063Z,3.40
2022-12-26T15:48:26.358Z,7.95
2022-12-26T15:51:01.052Z,6.22
2022-12-26T15:53:42.147Z,12.45
2022-12-26T15:56:29.174Z,9.65
2022-12-26T15:59:10.830Z,6.07
2022-12-26T16:01:42.348Z,8.07
2022-12-26T16:04:18.919Z,6.35
2022-12-26T16:07:10.920Z,6.47
2022-12-26T16:09:51.857Z,7.82
2022-12-26T16:12:25.809Z,10.48
2022-12-26T16:15:04.966Z,6.15
2022-12-26T16:17:34.744Z,9.02
2022-12-26T16:20:39.743Z,8.95
2022-12-26T16:23:06.920Z,10.00
2022-12-26T16:25:39.232Z,8.77
2022-12-26T16:28:08.810Z,8.50
2022-12-26T16:30:39.974Z,10.43
2022-12-26T16:33:09.961Z,6.35
2022-12-26T16:35:42.805Z,14.90
2022-12-26T16:38:16.355Z,8.13
2022-12-26T16:40:49.662Z,7.38
2022-12-26T16:43:29.032Z,7.35
2022-12-26T16:46:02.753Z,5.50
2022-12-26T16:48:34.358Z,7.78
2022-12-26T16:51:06.510Z,9.07
2022-12-26T16:53:46.898Z,5.90
2022-12-26T16:56:27.222Z,4.50
2022-12-26T16:59:04.296Z,11.63
2022-12-26T17:01:35.168Z,11.38
2022-12-26T17:04:07.076Z,6.72
2022-12-26T17:06:38.826Z,6.30
2022-12-26T17:09:10.856Z,8.82
2022-12-26T17:11:51.487Z,4.38
2022-12-26T17:14:24.329Z,7.72
2022-12-26T17:17:00.203Z,7.57
2022-12-26T17:19:31.842Z,5.13
2022-12-26T17:22:22.264Z,8.32
2022-12-26T17:24:52.857Z,5.45
2022-12-26T17:27:26.678Z,6.55
2022-12-26T17:29:58.335Z,8.02
2022-12-26T17:32:35.322Z,7.95
2022-12-26T17:35:07.645Z,6.20
2022-12-26T17:37:37.691Z,5.03
2022-12-26T17:40:19.457Z,4.72
2022-12-26T17:42:53.829Z,6.53
2022-12-26T17:45:25.444Z,3.20
2022-12-26T17:47:55.961Z,6.97
2022-12-26T17:50:32.872Z,3.88
2022-12-26T17:53:06.914Z,8.75
2022-12-26T17:55:36.747Z,6.57
2022-12-26T17:58:08.893Z,7.07
2022-12-26T18:00:38.498Z,7.60
2022-12-26T18:03:08.217Z,10.05
2022-12-26T18:05:38.797Z,5.20
2022-12-26T18:08:09.094Z,9.38
2022-12-26T18:10:39.594Z,8.82
2022-12-26T18:13:13.256Z,11.73
2022-12-26T18:15:42.895Z,13.23
2022-12-26T18:18:23.278Z,4.65
2022-12-26T18:20:52.980Z,7.63
2022-12-26T18:23:23.094Z,16.17
2022-12-26T18:25:54.602Z,6.25
2022-12-26T18:28:26.978Z,7.03
2022-12-26T18:30:58.003Z,6.53
2022-12-26T18:33:27.906Z,8.48
2022-12-26T18:36:00.763Z,6.30
2022-12-26T18:38:32.938Z,6.47
2022-12-26T18:41:02.505Z,9.68
2022-12-26T18:43:34.730Z,8.93
2022-12-26T18:46:04.312Z,6.72
2022-12-26T18:48:33.886Z,5.60
2022-12-26T18:51:04.866Z,11.13
2022-12-26T18:53:34.470Z,7.95
2022-12-26T18:56:05.596Z,5.55
2022-12-26T18:58:37.901Z,10.90
2022-12-26T19:01:08.276Z,9.73
2022-12-26T19:03:38.630Z,8.98
2022-12-26T19:06:08.733Z,6.25
2022-12-26T19:08:38.296Z,10.20
2022-12-26T19:11:08.076Z,7.13
2022-12-26T19:13:40.345Z,6.97
2022-12-26T19:16:10.133Z,8.32
2022-12-26T19:18:39.784Z,5.70
2022-12-26T19:21:13.627Z,8.88
2022-12-26T19:23:43.269Z,8.50
2022-12-26T19:26:13.632Z,9.23
2022-12-26T19:28:45.962Z,8.23
2022-12-26T19:31:16.996Z,9.80
2022-12-26T19:33:46.967Z,7.15
2022-12-26T19:36:16.813Z,10.23
2022-12-26T19:38:46.374Z,9.30
2022-12-26T19:41:17.405Z,10.93
2022-12-26T19:43:49.603Z,11.55
2022-12-26T19:46:19.245Z,11.63
2022-12-26T19:48:48.843Z,10.52
2022-12-26T19:51:19.613Z,10.00
2022-12-26T19:53:49.825Z,6.85
2022-12-26T19:56:20.864Z,13.60
2022-12-26T19:58:56.727Z,11.95
2022-12-26T20:01:28.456Z,11.50
2022-12-26T20:03:58.878Z,14.07
2022-12-26T20:06:30.451Z,9.48
2022-12-26T20:09:02.498Z,8.35
2022-12-26T20:11:34.146Z,8.52
2022-12-26T20:14:07.717Z,10.45
2022-12-26T20:17:04.417Z,12.23
2022-12-26T20:19:28.129Z,9.30
2022-12-26T20:21:58.063Z,9.65
2022-12-26T20:24:27.821Z,7.13
2022-12-26T20:26:57.620Z,10.13
2022-12-26T20:29:29.837Z,8.30
2022-12-26T20:32:00.413Z,11.20
2022-12-26T20:34:30.225Z,10.65
2022-12-26T20:36:59.832Z,11.80
2022-12-26T20:39:29.632Z,6.72
2022-12-26T20:41:59.196Z,11.70
2022-12-26T20:44:31.428Z,10.32
2022-12-26T20:47:01.015Z,12.23
2022-12-26T20:49:30.784Z,11.75
2022-12-26T20:52:00.667Z,8.70
2022-12-26T20:54:30.587Z,12.25
2022-12-26T20:57:00.127Z,19.42
2022-12-26T20:59:32.353Z,11.25
2022-12-26T21:02:02.155Z,11.93
2022-12-26T21:04:33.178Z,11.32
2022-12-26T21:07:02.826Z,11.52
2022-12-26T21:09:32.428Z,11.10
2022-12-26T21:12:02.006Z,19.15
2022-12-26T21:14:34.482Z,10.85
2022-12-26T21:17:04.089Z,8.75
2022-12-26T21:19:33.743Z,13.50
2022-12-26T21:22:03.325Z,6.63
2022-12-26T21:24:34.761Z,11.57
2022-12-26T21:27:04.394Z,12.25
2022-12-26T21:29:38.633Z,9.02
2022-12-26T21:34:39.039Z,13.38
2022-12-26T21:37:21.099Z,15.32
2022-12-26T21:39:50.812Z,14.90
2022-12-26T21:42:20.437Z,10.10
2022-12-26T21:44:52.746Z,13.43
2022-12-26T21:47:22.421Z,10.15
2022-12-26T21:49:51.997Z,12.85
2022-12-26T21:52:21.602Z,15.13
2022-12-26T21:55:03.642Z,14.45
2022-12-26T21:57:35.094Z,9.55
2022-12-26T22:00:08.600Z,7.03
2022-12-26T22:02:53.030Z,10.95
2022-12-26T22:07:57.319Z,10.45
2022-12-26T22:10:40.824Z,11.25
2022-12-26T22:13:10.472Z,10.00
2022-12-26T22:15:59.883Z,7.18
2022-12-26T22:18:29.735Z,8.40
2022-12-26T22:20:59.503Z,8.88
2022-12-26T22:23:29.091Z,11.35
2022-12-26T22:26:00.068Z,15.15
2022-12-26T22:28:31.656Z,9.27
2022-12-26T22:31:04.211Z,10.07
2022-12-26T22:33:33.957Z,7.85
2022-12-26T22:36:08.187Z,15.70
2022-12-26T22:38:38.716Z,16.60
2022-12-26T22:41:08.929Z,9.40
2022-12-26T22:43:38.630Z,9.57
2022-12-26T22:46:11.042Z,11.75
2022-12-26T22:48:41.627Z,12.80
2022-12-26T22:51:12.183Z,13.10
2022-12-26T22:53:42.434Z,14.15
2022-12-26T22:56:13.051Z,12.27
2022-12-26T22:58:43.155Z,12.48
2022-12-26T23:01:22.105Z,13.02
2022-12-26T23:03:52.142Z,11.68
2022-12-26T23:06:24.591Z,14.27
2022-12-26T23:08:56.701Z,13.85
2022-12-26T23:11:33.972Z,10.45
2022-12-26T23:14:05.826Z,7.85
2022-12-26T23:16:41.539Z,10.93
2022-12-26T23:19:27.902Z,11.23
2022-12-26T23:21:58.025Z,12.43
2022-12-26T23:24:29.921Z,10.00
2022-12-26T23:27:21.685Z,15.82
2022-12-26T23:30:04.232Z,8.77
2022-12-26T23:32:36.799Z,16.15
2022-12-26T23:35:07.152Z,14.05
2022-12-26T23:37:36.807Z,10.60
2022-12-26T23:40:06.850Z,18.30
2022-12-26T23:42:36.453Z,12.43
2022-12-26T23:45:06.739Z,13.43
2022-12-26T23:47:41.805Z,15.90
2022-12-26T23:50:13.342Z,11.48
2022-12-26T23:52:43.052Z,11.07
2022-12-26T23:55:13.460Z,13.48
2022-12-26T23:57:43.008Z,16.50
